Kalber, Washington
Current Conditions -  °F | °C
As of 6:55 PM on Sunday 23 Nov 2014 (Local Time) from KCLS Reporting Station
Broken Clouds Broken Clouds  
Wind Chill: 41°   Ceiling: 3000
Heat Index: 41°   Visibility: 10mi
Dew Point: 41°   Wind: 3mph
Humidity: 100%   Direction: 250°WSW
Pressure: 30.3"   Gusts: NA
Location:  46.5326°N, 123.142°W
Report Text: KCLS 240255Z AUTO 25003KT 10SM BKN030 05/05 A3030 RMK AO2
Loading
Personal Weather Stations






























Interactive Weather Map New forecast layout! Learn more

10-Day Weather Forecast

Advertisements
Track Severe Weather on mobile